Boothbay, Maine
Current Conditions -  °F | °C
As of 12:53 PM on Sunday 21 Dec 2014 (Local Time) from KIWI Reporting Station
Overcast Overcast  
Wind Chill: 31°   Ceiling: 4000
Heat Index: 31°   Visibility: 10mi
Dew Point: 23°   Wind: 3mph
Humidity: 72%   Direction: NA
Pressure: 30.34"   Gusts: NA
Location:  43.88°N, 69.63°W
Report Text: KIWI 211753Z AUTO VRB03KT 10SM OVC040 M01/M05 A3034 RMK AO2 SLP275 T10061050 10000 21050 57014
Loading
Personal Weather Stations






























Interactive Weather Map New forecast layout! Learn more

10-Day Weather Forecast

Advertisements
Track Severe Weather on mobile